Time;durP1;ratioP1;P1;durP2;ratioP2;P2;SDS_P1;SDS_P2;PMS_P1;PMS_P2;Temp;Humidity;BMP_temperature;BMP_pressure;BME280_temperature;BME280_humidity;BME280_pressure;Samples;Min_cycle;Max_cycle;Signal;HPM_P1;HPM_P2
2023/01/25 00:01:28;;;;;;;51.17;24.73;;;;;;;-0.35;100.00;103021.22;5040265;28;20702;-73
2023/01/25 00:03:56;;;;;;;53.53;23.40;;;;;;;-0.38;100.00;103020.25;5055567;22;20235;-75
2023/01/25 00:06:22;;;;;;;56.83;24.13;;;;;;;-0.34;100.00;103023.00;5033356;28;20220;-77
2023/01/25 00:08:49;;;;;;;55.10;24.47;;;;;;;-0.36;100.00;103015.22;5021075;28;20209;-77
2023/01/25 00:11:16;;;;;;;59.10;23.97;;;;;;;-0.37;100.00;103016.00;5034477;28;20195;-77
2023/01/25 00:13:43;;;;;;;62.47;24.40;;;;;;;-0.36;100.00;103020.34;5034504;28;20476;-76
2023/01/25 00:16:09;;;;;;;52.97;23.87;;;;;;;-0.36;100.00;103015.22;5037418;28;20626;-76
2023/01/25 00:18:36;;;;;;;56.80;24.47;;;;;;;-0.38;100.00;103010.00;5053066;22;20230;-73
2023/01/25 00:21:13;;;;;;;54.83;23.73;;;;;;;-0.38;100.00;103004.00;5032995;28;20761;-72
2023/01/25 00:23:39;;;;;;;58.77;24.33;;;;;;;-0.40;100.00;102998.78;5037904;28;20207;-73
2023/01/25 00:26:06;;;;;;;57.90;24.50;;;;;;;-0.38;100.00;102994.59;5035479;28;20261;-73
2023/01/25 00:28:32;;;;;;;59.63;25.97;;;;;;;-0.36;100.00;102998.97;5040917;28;20215;-73
2023/01/25 00:30:59;;;;;;;52.80;23.93;;;;;;;-0.38;100.00;102999.75;5015554;28;20737;-73
2023/01/25 00:33:39;;;;;;;60.53;25.73;;;;;;;-0.40;100.00;102988.53;5021187;28;20337;-72
2023/01/25 00:36:33;;;;;;;57.97;24.53;;;;;;;-0.39;100.00;102974.91;5021266;28;20202;-73
2023/01/25 00:38:59;;;;;;;57.50;25.50;;;;;;;-0.36;100.00;102968.19;5015976;28;20219;-74
2023/01/25 00:41:26;;;;;;;58.43;24.23;;;;;;;-0.36;100.00;102971.63;5019165;28;20223;-73
2023/01/25 00:43:53;;;;;;;59.20;24.90;;;;;;;-0.37;100.00;102959.59;5030907;28;20196;-73
2023/01/25 00:46:19;;;;;;;66.67;24.37;;;;;;;-0.36;100.00;102963.94;5018169;28;20217;-72
2023/01/25 00:48:46;;;;;;;52.37;24.33;;;;;;;-0.34;100.00;102958.91;5036258;28;20223;-73
2023/01/25 00:51:14;;;;;;;55.80;24.97;;;;;;;-0.38;100.00;102953.59;5040597;28;20553;-73
2023/01/25 00:53:41;;;;;;;62.63;24.30;;;;;;;-0.36;100.00;102948.56;5020335;28;20219;-73
2023/01/25 00:56:09;;;;;;;69.73;26.40;;;;;;;-0.38;100.00;102943.34;5033073;28;20192;-72
2023/01/25 00:58:36;;;;;;;53.33;23.83;;;;;;;-0.38;100.00;102945.91;5017904;28;20234;-73
2023/01/25 01:01:07;;;;;;;55.50;24.47;;;;;;;-0.37;100.00;102941.66;5014852;28;20219;-73
2023/01/25 01:03:34;;;;;;;54.10;22.90;;;;;;;-0.37;100.00;102933.97;5021474;28;20644;-73
2023/01/25 01:06:02;;;;;;;57.37;24.27;;;;;;;-0.35;100.00;102931.47;5032682;28;20208;-72
2023/01/25 01:08:32;;;;;;;53.87;24.13;;;;;;;-0.36;100.00;102928.03;5037231;28;20695;-72
2023/01/25 01:11:00;;;;;;;62.97;24.57;;;;;;;-0.35;100.00;102918.66;5017909;28;20298;-72
2023/01/25 01:13:27;;;;;;;56.47;24.07;;;;;;;-0.34;100.00;102920.44;5017867;28;20203;-72
2023/01/25 01:15:53;;;;;;;58.90;24.23;;;;;;;-0.33;100.00;102915.41;5033372;28;20694;-72
2023/01/25 01:18:19;;;;;;;55.00;24.77;;;;;;;-0.32;100.00;102909.47;5033590;28;20597;-72
2023/01/25 01:20:48;;;;;;;65.97;25.97;;;;;;;-0.32;100.00;102913.72;5010936;28;20215;-73
2023/01/25 01:23:15;;;;;;;50.53;22.50;;;;;;;-0.31;100.00;102913.81;5033731;28;20292;-73
2023/01/25 01:25:42;;;;;;;48.27;21.27;;;;;;;-0.29;100.00;102908.78;5034127;28;20492;-72
2023/01/25 01:28:09;;;;;;;55.43;24.20;;;;;;;-0.29;100.00;102913.91;5034832;28;20699;-72
2023/01/25 01:30:36;;;;;;;63.80;25.17;;;;;;;-0.29;100.00;102899.38;5037588;28;20192;-72
2023/01/25 01:33:03;;;;;;;61.47;26.30;;;;;;;-0.29;100.00;102891.69;5029268;28;20203;-73
2023/01/25 01:35:31;;;;;;;52.77;23.50;;;;;;;-0.30;100.00;102897.63;5032684;28;20675;-72
2023/01/25 01:37:58;;;;;;;54.70;24.37;;;;;;;-0.28;100.00;102890.91;5014906;28;20199;-72
2023/01/25 01:40:24;;;;;;;59.63;23.10;;;;;;;-0.28;100.00;102890.91;5037220;28;20247;-73
2023/01/25 01:43:04;;;;;;;65.23;24.67;;;;;;;-0.26;100.00;102889.31;5035532;28;20355;-72
2023/01/25 01:45:50;;;;;;;60.30;23.43;;;;;;;-0.25;100.00;102872.22;5032229;28;20211;-73
2023/01/25 01:48:32;;;;;;;61.43;24.53;;;;;;;-0.27;100.00;102877.28;5016644;28;20369;-72
2023/01/25 01:51:02;;;;;;;56.83;23.70;;;;;;;-0.26;100.00;102878.19;5017391;28;20195;-72
2023/01/25 01:53:32;;;;;;;52.20;21.60;;;;;;;-0.26;100.00;102870.47;5027999;28;20196;-73
2023/01/25 01:56:02;;;;;;;56.47;23.70;;;;;;;-0.26;100.00;102868.78;5014557;28;20738;-72
2023/01/25 01:58:32;;;;;;;50.67;23.00;;;;;;;-0.27;100.00;102877.28;5013694;28;20238;-72
2023/01/25 02:00:58;;;;;;;60.00;24.00;;;;;;;-0.27;100.00;102886.66;5013366;28;20208;-72
2023/01/25 02:03:26;;;;;;;53.90;23.63;;;;;;;-0.27;100.00;102887.53;5014734;28;20211;-72
2023/01/25 02:06:00;;;;;;;51.00;22.57;;;;;;;-0.27;100.00;102879.84;5017789;28;20660;-72
2023/01/25 02:08:30;;;;;;;62.13;23.80;;;;;;;-0.26;100.00;102878.19;5019636;28;20634;-73
2023/01/25 02:11:00;;;;;;;56.37;24.23;;;;;;;-0.26;100.00;102875.63;5013054;28;20200;-72
2023/01/25 02:13:28;;;;;;;59.90;23.40;;;;;;;-0.27;100.00;102878.97;5017359;28;20256;-72
2023/01/25 02:15:56;;;;;;;58.00;24.30;;;;;;;-0.27;100.00;102874.72;5029070;28;20214;-72
2023/01/25 02:18:24;;;;;;;54.83;24.77;;;;;;;-0.30;100.00;102872.00;5016304;28;20293;-72
2023/01/25 02:20:55;;;;;;;60.67;23.83;;;;;;;-0.28;100.00;102872.06;5015967;28;20285;-71
2023/01/25 02:23:27;;;;;;;59.30;22.97;;;;;;;-0.28;100.00;102866.94;5035546;28;20590;-73
2023/01/25 02:25:56;;;;;;;50.13;22.07;;;;;;;-0.28;100.00;102869.50;5030689;28;20709;-72
2023/01/25 02:28:27;;;;;;;54.10;22.93;;;;;;;-0.30;100.00;102863.41;5037118;28;20307;-72
2023/01/25 02:30:53;;;;;;;55.37;24.80;;;;;;;-0.30;100.00;102861.75;5013812;28;20196;-72
2023/01/25 02:33:23;;;;;;;55.43;24.40;;;;;;;-0.31;100.00;102862.53;5014867;28;20295;-72
2023/01/25 02:35:55;;;;;;;55.27;23.47;;;;;;;-0.33;100.00;102874.38;5018569;28;20411;-72
2023/01/25 02:38:21;;;;;;;63.87;25.33;;;;;;;-0.33;100.00;102869.25;5036402;28;20735;-72
2023/01/25 02:40:57;;;;;;;65.50;25.13;;;;;;;-0.33;100.00;102870.94;5033436;28;20642;-73
2023/01/25 02:43:29;;;;;;;58.07;24.40;;;;;;;-0.36;100.00;102870.78;5020662;28;20213;-72
2023/01/25 02:46:03;;;;;;;60.00;24.80;;;;;;;-0.37;100.00;102869.88;5030915;28;20264;-73
2023/01/25 02:48:29;;;;;;;63.17;22.27;;;;;;;-0.37;100.00;102862.19;5016972;28;20729;-71
2023/01/25 02:50:55;;;;;;;53.57;23.47;;;;;;;-0.38;100.00;102865.56;5015493;28;20660;-72
2023/01/25 02:53:22;;;;;;;58.73;25.03;;;;;;;-0.38;100.00;102865.56;5035559;28;20199;-72
2023/01/25 02:55:48;;;;;;;59.20;24.30;;;;;;;-0.38;100.00;102863.88;5018097;28;20191;-72
2023/01/25 02:58:16;;;;;;;54.87;23.00;;;;;;;-0.37;100.00;102859.63;5013392;28;20218;-72
2023/01/25 03:00:43;;;;;;;55.73;24.23;;;;;;;-0.39;100.00;102859.56;5016302;28;20206;-72
2023/01/25 03:03:11;;;;;;;63.33;23.73;;;;;;;-0.40;100.00;102860.34;5015417;28;20203;-72
2023/01/25 03:05:37;;;;;;;64.40;23.70;;;;;;;-0.42;100.00;102856.81;5035013;28;20228;-72
2023/01/25 03:08:04;;;;;;;63.77;26.23;;;;;;;-0.42;100.00;102856.81;5015822;28;20625;-71
2023/01/25 03:10:30;;;;;;;61.67;25.30;;;;;;;-0.40;100.00;102856.91;5034137;28;20202;-72
2023/01/25 03:12:57;;;;;;;66.37;23.20;;;;;;;-0.40;100.00;102856.91;5017517;28;20339;-71
2023/01/25 03:15:25;;;;;;;60.20;25.30;;;;;;;-0.39;100.00;102844.19;5030769;28;20211;-73
2023/01/25 03:17:51;;;;;;;59.10;23.60;;;;;;;-0.39;100.00;102846.75;5012794;28;20706;-71
2023/01/25 03:20:18;;;;;;;64.27;25.93;;;;;;;-0.40;100.00;102850.09;5020237;28;21146;-72
2023/01/25 03:22:44;;;;;;;65.67;26.03;;;;;;;-0.39;100.00;102844.19;5016399;28;20822;-71
2023/01/25 03:25:11;;;;;;;60.57;24.90;;;;;;;-0.39;100.00;102846.75;5016963;28;20292;-72
2023/01/25 03:27:45;;;;;;;61.37;24.33;;;;;;;-0.36;100.00;102840.00;5014783;28;20202;-72
2023/01/25 03:30:12;;;;;;;62.17;25.97;;;;;;;-0.37;100.00;102846.81;5016423;28;20214;-72
2023/01/25 03:32:40;;;;;;;54.17;23.50;;;;;;;-0.37;100.00;102851.94;5012400;28;20199;-71
2023/01/25 03:35:10;;;;;;;63.50;25.63;;;;;;;-0.39;100.00;102843.28;5012942;28;20666;-72
2023/01/25 03:37:36;;;;;;;61.33;25.00;;;;;;;-0.39;100.00;102836.50;5017593;28;20314;-71
2023/01/25 03:40:05;;;;;;;61.20;25.13;;;;;;;-0.41;100.00;102839.75;5011919;28;20211;-73
2023/01/25 03:42:31;;;;;;;71.83;26.60;;;;;;;-0.41;100.00;102842.31;5016919;28;20219;-72
2023/01/25 03:44:58;;;;;;;55.30;25.07;;;;;;;-0.40;100.00;102837.28;5034272;28;20671;-72
2023/01/25 03:47:25;;;;;;;72.90;25.97;;;;;;;-0.40;100.00;102834.72;5034282;28;20202;-72
2023/01/25 03:49:53;;;;;;;64.10;26.57;;;;;;;-0.40;100.00;102826.16;5037551;28;20298;-72
2023/01/25 03:52:19;;;;;;;58.00;24.27;;;;;;;-0.40;100.00;102831.28;5023218;28;20198;-72
2023/01/25 03:54:47;;;;;;;68.23;25.97;;;;;;;-0.39;100.00;102825.34;5035788;28;20203;-72
2023/01/25 03:57:13;;;;;;;62.60;24.10;;;;;;;-0.38;100.00;102819.41;5021231;28;20854;-72
2023/01/25 03:59:54;;;;;;;63.63;23.97;;;;;;;-0.38;100.00;102822.84;5033072;28;20230;-72
2023/01/25 04:02:21;;;;;;;59.17;24.10;;;;;;;-0.38;100.00;102812.59;5016817;28;20223;-72
2023/01/25 04:04:47;;;;;;;69.30;25.00;;;;;;;-0.38;100.00;102814.28;5018734;28;20220;-71
2023/01/25 04:07:17;;;;;;;60.93;25.03;;;;;;;-0.37;100.00;102808.34;5023646;28;20212;-72
2023/01/25 04:09:44;;;;;;;62.70;24.13;;;;;;;-0.36;100.00;102807.56;5018390;28;20233;-72
2023/01/25 04:12:11;;;;;;;58.83;24.83;;;;;;;-0.35;100.00;102808.44;5020356;28;20199;-72
2023/01/25 04:14:38;;;;;;;60.20;23.97;;;;;;;-0.35;100.00;102806.78;5036419;28;20858;-72
2023/01/25 04:17:07;;;;;;;58.40;23.17;;;;;;;-0.35;100.00;102805.88;5017538;28;20440;-72
2023/01/25 04:19:54;;;;;;;66.10;27.17;;;;;;;-0.33;100.00;102801.75;5012425;28;20224;-72
2023/01/25 04:22:27;;;;;;;66.70;25.40;;;;;;;-0.33;100.00;102801.75;5022112;28;20218;-72
2023/01/25 04:24:55;;;;;;;59.40;25.03;;;;;;;-0.34;100.00;102797.41;5019982;28;20624;-72
2023/01/25 04:27:22;;;;;;;64.90;26.33;;;;;;;-0.32;100.00;102788.09;5021897;28;20199;-72
2023/01/25 04:29:57;;;;;;;62.90;24.97;;;;;;;-0.31;100.00;102790.75;5019007;28;20336;-71
2023/01/25 04:32:25;;;;;;;64.50;25.33;;;;;;;-0.30;100.00;102800.22;5021432;28;20277;-72
2023/01/25 04:34:52;;;;;;;64.03;25.27;;;;;;;-0.31;100.00;102785.63;5017450;28;20203;-71
2023/01/25 04:37:22;;;;;;;68.27;26.87;;;;;;;-0.31;100.00;102788.19;5016673;28;20284;-72
2023/01/25 04:40:00;;;;;;;62.50;26.20;;;;;;;-0.29;100.00;102783.13;5034468;28;20230;-73
2023/01/25 04:42:32;;;;;;;73.57;26.43;;;;;;;-0.32;100.00;102781.28;5020972;28;20226;-72
2023/01/25 04:44:59;;;;;;;68.97;25.53;;;;;;;-0.30;100.00;102782.28;5021455;28;20224;-72
2023/01/25 04:47:26;;;;;;;70.17;23.63;;;;;;;-0.30;100.00;102777.13;5016067;28;20204;-72
2023/01/25 04:49:52;;;;;;;61.53;25.70;;;;;;;-0.29;100.00;102773.75;5018684;28;20227;-72
2023/01/25 04:52:22;;;;;;;64.83;25.27;;;;;;;-0.28;100.00;102772.97;5019178;28;20194;-73
2023/01/25 04:54:49;;;;;;;61.30;23.40;;;;;;;-0.28;100.00;102770.41;5019151;28;20711;-72
2023/01/25 04:57:18;;;;;;;65.57;25.63;;;;;;;-0.29;100.00;102760.06;5019504;28;20564;-72
2023/01/25 04:59:49;;;;;;;64.57;24.03;;;;;;;-0.28;100.00;102759.25;5016987;28;20217;-72
2023/01/25 05:02:15;;;;;;;75.63;26.63;;;;;;;-0.30;100.00;102753.16;5032187;28;20219;-72
2023/01/25 05:04:42;;;;;;;67.87;25.43;;;;;;;-0.31;100.00;102749.72;5020393;28;20199;-72
2023/01/25 05:07:08;;;;;;;63.83;24.13;;;;;;;-0.32;100.00;102747.09;5019556;28;20196;-72
2023/01/25 05:09:34;;;;;;;56.33;23.47;;;;;;;-0.29;100.00;102753.25;5018361;28;20323;-72
2023/01/25 05:12:10;;;;;;;60.87;24.37;;;;;;;-0.28;100.00;102739.63;5014879;28;20614;-72
2023/01/25 05:14:46;;;;;;;57.63;22.73;;;;;;;-0.27;100.00;102746.50;5017278;28;20606;-72
2023/01/25 05:17:13;;;;;;;65.13;24.77;;;;;;;-0.26;100.00;102749.97;5018994;28;20266;-72
2023/01/25 05:19:41;;;;;;;64.77;23.93;;;;;;;-0.27;100.00;102749.06;5012397;28;20227;-72
2023/01/25 05:22:14;;;;;;;57.67;24.17;;;;;;;-0.27;100.00;102754.22;5016930;28;20826;-72
2023/01/25 05:24:44;;;;;;;66.43;25.63;;;;;;;-0.27;100.00;102756.78;5016501;28;20242;-72
2023/01/25 05:27:12;;;;;;;64.00;24.63;;;;;;;-0.26;100.00;102753.41;5012242;28;20199;-72
2023/01/25 05:29:56;;;;;;;59.07;23.43;;;;;;;-0.29;100.00;102754.94;5032238;28;20231;-72
2023/01/25 05:32:46;;;;;;;46.87;20.43;;;;;;;-0.28;100.00;102755.03;5015430;28;20196;-73
2023/01/25 05:35:13;;;;;;;45.67;18.90;;;;;;;-0.29;100.00;102753.25;5018931;28;20199;-72
2023/01/25 05:37:39;;;;;;;41.30;18.07;;;;;;;-0.27;100.00;102755.91;5013351;28;20196;-72
2023/01/25 05:40:13;;;;;;;35.13;13.87;;;;;;;-0.28;100.00;102751.56;5031642;28;20196;-72
2023/01/25 05:42:40;;;;;;;29.07;12.80;;;;;;;-0.27;100.00;102750.75;5031710;28;20306;-72
2023/01/25 05:45:16;;;;;;;25.80;14.07;;;;;;;-0.26;100.00;102748.28;5027024;28;20213;-72
2023/01/25 05:47:45;;;;;;;31.07;14.30;;;;;;;-0.25;100.00;102744.91;5015505;28;20237;-71
2023/01/25 05:50:11;;;;;;;35.90;15.03;;;;;;;-0.23;100.00;102745.00;5032344;28;20738;-72
2023/01/25 05:52:48;;;;;;;35.37;14.23;;;;;;;-0.22;100.00;102744.19;5013468;28;20207;-72
2023/01/25 05:55:15;;;;;;;33.73;16.57;;;;;;;-0.23;100.00;102742.44;5015716;28;20509;-71
2023/01/25 05:57:41;;;;;;;36.07;16.97;;;;;;;-0.24;100.00;102739.00;5013407;28;20206;-72
2023/01/25 06:00:10;;;;;;;23.80;11.53;;;;;;;-0.27;100.00;102737.94;5032982;28;20201;-73
2023/01/25 06:02:41;;;;;;;25.70;10.50;;;;;;;-0.27;100.00;102733.69;5032795;28;20568;-72
2023/01/25 06:05:10;;;;;;;22.23;10.77;;;;;;;-0.25;100.00;102733.78;5010832;28;20338;-72
2023/01/25 06:07:36;;;;;;;26.90;12.43;;;;;;;-0.24;100.00;102733.00;5031748;28;20656;-72
2023/01/25 06:10:06;;;;;;;20.80;10.93;;;;;;;-0.24;100.00;102733.84;5012922;28;20592;-72
2023/01/25 06:12:32;;;;;;;24.33;11.03;;;;;;;-0.24;100.00;102730.44;5031304;28;20223;-71
2023/01/25 06:14:59;;;;;;;28.63;11.80;;;;;;;-0.24;100.00;102733.00;5014324;28;20200;-72
2023/01/25 06:17:25;;;;;;;23.80;11.13;;;;;;;-0.21;100.00;102733.16;5018994;28;20226;-71
2023/01/25 06:20:09;;;;;;;24.43;11.43;;;;;;;-0.20;100.00;102730.63;5042122;23;20299;-77
2023/01/25 06:22:36;;;;;;;28.87;12.77;;;;;;;-0.18;100.00;102729.84;5056358;28;20207;-76
2023/01/25 06:25:02;;;;;;;26.47;12.97;;;;;;;-0.19;100.00;102731.53;5057392;28;20199;-76
2023/01/25 06:27:29;;;;;;;27.23;13.10;;;;;;;-0.19;100.00;102731.53;5051214;28;20223;-76
2023/01/25 06:29:55;;;;;;;23.20;11.13;;;;;;;-0.22;100.00;102731.38;5064473;28;20653;-76
2023/01/25 06:32:24;;;;;;;26.77;11.23;;;;;;;-0.20;100.00;102727.22;5057778;28;20202;-78
2023/01/25 06:34:50;;;;;;;23.90;11.47;;;;;;;-0.18;100.00;102727.28;5069929;28;20207;-77
2023/01/25 06:37:21;;;;;;;29.00;12.50;;;;;;;-0.18;100.00;102724.72;5051949;28;20225;-77
2023/01/25 06:39:48;;;;;;;26.83;12.20;;;;;;;-0.18;100.00;102722.16;5070711;28;20249;-76
2023/01/25 06:42:14;;;;;;;26.27;11.77;;;;;;;-0.20;100.00;102716.94;5069951;28;20735;-78
2023/01/25 06:44:40;;;;;;;22.23;11.33;;;;;;;-0.20;100.00;102715.25;5069048;28;20266;-77
2023/01/25 06:47:10;;;;;;;29.50;12.00;;;;;;;-0.20;100.00;102717.81;5050360;28;20865;-77
2023/01/25 06:49:36;;;;;;;23.77;11.53;;;;;;;-0.18;100.00;102712.78;5069523;28;20637;-76
2023/01/25 06:52:02;;;;;;;24.13;12.30;;;;;;;-0.17;100.00;102711.13;5064563;28;20207;-77
2023/01/25 06:54:30;;;;;;;27.50;12.07;;;;;;;-0.15;100.00;102709.50;5063398;28;20210;-77
2023/01/25 06:56:56;;;;;;;27.73;11.90;;;;;;;-0.17;100.00;102703.44;5061492;28;20517;-77
2023/01/25 06:59:23;;;;;;;19.87;10.63;;;;;;;-0.20;100.00;102702.44;5065807;28;20222;-76
2023/01/25 07:01:49;;;;;;;30.90;12.70;;;;;;;-0.22;100.00;102700.59;5047777;28;20198;-77
2023/01/25 07:04:16;;;;;;;26.03;11.90;;;;;;;-0.24;100.00;102690.28;5075002;28;20198;-77
2023/01/25 07:06:42;;;;;;;28.53;12.57;;;;;;;-0.23;100.00;102689.47;5056829;28;20195;-77
2023/01/25 07:09:12;;;;;;;25.90;12.90;;;;;;;-0.24;100.00;102687.72;5067263;28;20223;-77
2023/01/25 07:11:40;;;;;;;21.83;10.50;;;;;;;-0.24;100.00;102689.41;5080195;28;20217;-77
2023/01/25 07:14:06;;;;;;;21.20;10.10;;;;;;;-0.22;100.00;102691.22;5079238;28;20210;-77
2023/01/25 07:16:37;;;;;;;48.47;20.53;;;;;;;-0.23;100.00;102681.78;5082913;28;20201;-76
2023/01/25 07:19:04;;;;;;;62.80;26.40;;;;;;;-0.21;100.00;102680.19;5077487;28;20220;-77
2023/01/25 07:21:30;;;;;;;46.90;19.97;;;;;;;-0.22;100.00;102680.09;5061358;28;20721;-76
2023/01/25 07:24:00;;;;;;;26.77;12.10;;;;;;;-0.20;100.00;102678.50;5057815;28;20206;-77
2023/01/25 07:26:26;;;;;;;25.10;10.47;;;;;;;-0.27;100.00;102672.16;5072853;28;20191;-77
2023/01/25 07:28:56;;;;;;;22.57;10.17;;;;;;;-0.27;100.00;102677.28;5073842;28;20251;-76
2023/01/25 07:31:23;;;;;;;21.50;11.10;;;;;;;-0.28;100.00;102672.97;5072675;28;20598;-77
2023/01/25 07:33:50;;;;;;;20.87;10.13;;;;;;;-0.24;100.00;102668.88;5075246;28;20200;-76
2023/01/25 07:36:17;;;;;;;23.43;9.77;;;;;;;-0.26;100.00;102661.13;5077421;28;20203;-76
2023/01/25 07:38:44;;;;;;;23.80;11.00;;;;;;;-0.22;100.00;102657.03;5076466;28;20225;-77
2023/01/25 07:41:10;;;;;;;20.73;9.80;;;;;;;-0.18;100.00;102669.19;5073670;28;20216;-76
2023/01/25 07:43:37;;;;;;;20.77;9.47;;;;;;;-0.22;100.00;102659.59;5077203;28;20214;-76
2023/01/25 07:46:07;;;;;;;25.47;10.77;;;;;;;-0.20;100.00;102655.41;5058770;28;20191;-77
2023/01/25 07:48:33;;;;;;;25.10;10.70;;;;;;;-0.23;100.00;102651.03;5078816;28;20231;-76
2023/01/25 07:51:21;;;;;;;21.37;11.23;;;;;;;-0.21;100.00;102651.09;5073265;28;20205;-76
2023/01/25 07:53:49;;;;;;;25.07;11.87;;;;;;;-0.21;100.00;102645.97;5078066;28;20258;-76
2023/01/25 07:56:16;;;;;;;21.13;9.73;;;;;;;-0.22;100.00;102645.06;5079377;28;20225;-77
2023/01/25 07:58:42;;;;;;;34.03;16.97;;;;;;;-0.21;100.00;102646.84;5078458;28;20230;-78
2023/01/25 08:01:11;;;;;;;22.53;12.13;;;;;;;-0.21;100.00;102643.41;5081529;28;20202;-77
2023/01/25 08:03:38;;;;;;;26.53;11.00;;;;;;;-0.17;100.00;102647.88;5080227;28;20223;-76
2023/01/25 08:06:05;;;;;;;32.90;16.20;;;;;;;-0.18;100.00;102651.25;5081118;28;20189;-77
2023/01/25 08:08:33;;;;;;;24.80;12.47;;;;;;;-0.15;100.00;102650.53;5073418;28;20226;-78
2023/01/25 08:11:01;;;;;;;25.57;11.37;;;;;;;-0.14;100.00;102655.75;5075434;28;20264;-75
2023/01/25 08:13:27;;;;;;;20.10;10.37;;;;;;;-0.13;100.00;102654.03;5061251;28;20199;-76
2023/01/25 08:15:54;;;;;;;22.00;11.07;;;;;;;-0.11;100.00;102647.31;5058952;28;20199;-76
2023/01/25 08:18:22;;;;;;;23.83;13.90;;;;;;;-0.10;100.00;102651.63;5069832;28;20248;-77
2023/01/25 08:20:48;;;;;;;24.27;11.23;;;;;;;-0.10;100.00;102644.81;5076483;28;20206;-77
2023/01/25 08:23:15;;;;;;;19.23;11.00;;;;;;;-0.09;100.00;102648.25;5060979;28;20393;-77
2023/01/25 08:25:42;;;;;;;21.53;11.30;;;;;;;-0.07;100.00;102642.41;5076846;28;20214;-77
2023/01/25 08:28:08;;;;;;;23.00;11.20;;;;;;;-0.08;100.00;102640.66;5072271;28;20206;-77
2023/01/25 08:30:34;;;;;;;23.03;12.27;;;;;;;-0.07;100.00;102644.97;5058797;28;20202;-77
2023/01/25 08:33:01;;;;;;;29.73;16.23;;;;;;;-0.07;100.00;102642.41;5073725;28;20197;-77
2023/01/25 08:35:28;;;;;;;19.10;11.27;;;;;;;-0.07;100.00;102636.38;5078547;28;20199;-77
2023/01/25 08:37:55;;;;;;;24.67;12.40;;;;;;;-0.04;100.00;102641.66;5071463;28;20209;-76
2023/01/25 08:40:21;;;;;;;27.17;12.83;;;;;;;-0.05;100.00;102640.81;5056577;28;20237;-77
2023/01/25 08:42:47;;;;;;;24.63;11.27;;;;;;;-0.03;100.00;102646.88;5076067;28;20214;-77
2023/01/25 08:45:14;;;;;;;19.03;9.00;;;;;;;-0.06;100.00;102638.16;5076633;28;20260;-77
2023/01/25 08:47:40;;;;;;;14.47;7.90;;;;;;;-0.10;100.00;102639.69;5083007;28;20190;-77
2023/01/25 08:50:08;;;;;;;20.53;10.07;;;;;;;-0.10;100.00;102633.69;5056692;28;20214;-77
2023/01/25 08:52:36;;;;;;;15.90;7.87;;;;;;;-0.07;100.00;102626.13;5080930;28;20186;-76
2023/01/25 08:55:02;;;;;;;17.17;8.40;;;;;;;-0.07;100.00;102616.78;5074345;28;20217;-77
2023/01/25 08:57:29;;;;;;;20.70;9.13;;;;;;;-0.04;100.00;102618.59;5075282;28;20546;-77
2023/01/25 08:59:55;;;;;;;18.27;9.97;;;;;;;-0.02;100.00;102619.53;5073129;28;20223;-77
2023/01/25 09:02:21;;;;;;;16.80;8.60;;;;;;;0.01;100.00;102622.25;5080634;28;20222;-77
2023/01/25 09:04:48;;;;;;;19.40;10.50;;;;;;;0.03;100.00;102622.34;5076701;28;20232;-77
2023/01/25 09:07:14;;;;;;;24.27;11.43;;;;;;;0.04;100.00;102624.13;5056977;28;20220;-78
2023/01/25 09:09:42;;;;;;;20.50;10.57;;;;;;;0.05;100.00;102613.03;5079002;28;20213;-77
2023/01/25 09:12:09;;;;;;;18.87;9.67;;;;;;;0.04;100.00;102617.28;5068339;28;20186;-77
2023/01/25 09:14:37;;;;;;;23.40;11.73;;;;;;;0.06;100.00;102619.94;5071138;28;20238;-78
2023/01/25 09:17:04;;;;;;;27.07;11.30;;;;;;;0.01;100.00;102609.44;5076658;28;20214;-77
2023/01/25 09:19:31;;;;;;;19.70;9.33;;;;;;;-0.03;100.00;102610.97;5079654;28;20230;-77
2023/01/25 09:21:57;;;;;;;15.83;8.47;;;;;;;-0.03;100.00;102612.66;5076238;28;20240;-78
2023/01/25 09:24:23;;;;;;;58.57;31.33;;;;;;;-0.01;100.00;102609.34;5082187;28;20242;-76
2023/01/25 09:26:51;;;;;;;24.03;12.47;;;;;;;-0.02;100.00;102605.06;5071791;28;20207;-77
2023/01/25 09:29:17;;;;;;;18.30;9.37;;;;;;;-0.03;100.00;102607.53;5078033;28;20610;-77
2023/01/25 09:31:44;;;;;;;22.10;11.53;;;;;;;0.01;100.00;102612.00;5071020;28;20203;-77
2023/01/25 09:34:31;;;;;;;17.60;9.10;;;;;;;0.01;100.00;102617.13;5076317;28;20292;-77
2023/01/25 09:36:57;;;;;;;18.93;10.23;;;;;;;0.05;100.00;102613.91;5072811;28;20209;-77
2023/01/25 09:39:24;;;;;;;24.87;12.90;;;;;;;0.04;100.00;102612.16;5079971;28;20222;-77
2023/01/25 09:42:11;;;;;;;18.50;11.03;;;;;;;0.04;100.00;102613.84;5078642;28;20191;-77
2023/01/25 09:44:55;;;;;;;22.63;12.97;;;;;;;0.06;100.00;102615.69;5081585;28;20500;-78
2023/01/25 09:47:29;;;;;;;18.53;10.63;;;;;;;0.08;100.00;102606.38;5074091;28;20202;-77
2023/01/25 09:50:16;;;;;;;18.00;8.73;;;;;;;0.04;100.00;102596.78;5079698;28;20411;-76
2023/01/25 09:53:05;;;;;;;15.83;9.07;;;;;;;0.09;100.00;102602.09;5073830;28;20203;-76
2023/01/25 09:55:33;;;;;;;15.50;8.37;;;;;;;0.10;100.00;102603.88;5078994;28;20632;-78
2023/01/25 09:58:02;;;;;;;17.50;9.27;;;;;;;0.12;100.00;102602.25;5075088;28;20207;-77
2023/01/25 10:00:33;;;;;;;20.67;10.67;;;;;;;0.13;100.00;102598.91;5078987;28;20216;-77
2023/01/25 10:03:05;;;;;;;19.93;10.53;;;;;;;0.11;100.00;102600.53;5075513;28;20222;-76
2023/01/25 10:05:37;;;;;;;16.47;7.60;;;;;;;0.10;100.00;102598.75;5072852;28;20229;-77
2023/01/25 10:08:08;;;;;;;19.27;8.63;;;;;;;0.08;100.00;102598.66;5076578;28;20214;-77
2023/01/25 10:10:38;;;;;;;17.03;7.87;;;;;;;0.09;100.00;102591.84;5080077;28;20214;-77
2023/01/25 10:13:11;;;;;;;19.30;9.63;;;;;;;0.10;100.00;102591.91;5073213;28;20195;-77
2023/01/25 10:15:40;;;;;;;18.87;9.43;;;;;;;0.14;100.00;102586.16;5072120;28;20258;-77
2023/01/25 10:18:17;;;;;;;17.90;8.93;;;;;;;0.15;100.00;102577.63;5058582;28;20197;-77
2023/01/25 10:20:49;;;;;;;17.20;8.00;;;;;;;0.19;100.00;102573.53;5078854;28;20190;-77
2023/01/25 10:23:34;;;;;;;17.97;7.93;;;;;;;0.21;100.00;102574.47;5075085;28;20215;-76
2023/01/25 10:26:08;;;;;;;19.23;9.50;;;;;;;0.26;100.00;102569.56;5055825;28;20198;-77
2023/01/25 10:28:42;;;;;;;18.87;8.20;;;;;;;0.30;100.00;102563.75;5078815;28;20568;-77
2023/01/25 10:31:16;;;;;;;16.93;9.47;;;;;;;0.34;100.00;102552.84;5081190;28;20268;-76
2023/01/25 10:33:45;;;;;;;20.13;9.43;;;;;;;0.36;100.00;102553.81;5074821;28;20304;-76
2023/01/25 10:36:14;;;;;;;19.30;10.07;;;;;;;0.36;100.00;102546.09;5076805;28;20203;-76
2023/01/25 10:38:42;;;;;;;17.97;8.80;;;;;;;0.37;100.00;102550.44;5077505;28;20261;-78
2023/01/25 10:41:13;;;;;;;14.77;8.23;;;;;;;0.37;100.00;102541.06;5078016;28;20195;-76
2023/01/25 10:43:41;;;;;;;20.63;8.10;;;;;;;0.41;100.00;102539.50;5074920;28;20220;-76
2023/01/25 10:46:19;;;;;;;17.43;8.50;;;;;;;0.43;100.00;102542.13;5084179;28;20213;-76
2023/01/25 10:48:45;;;;;;;16.77;7.53;;;;;;;0.42;100.00;102537.81;5068563;28;20224;-77
2023/01/25 10:51:29;;;;;;;18.73;9.10;;;;;;;0.41;100.00;102525.78;5064561;28;20202;-76
2023/01/25 10:54:01;;;;;;;19.43;7.27;;;;;;;0.41;100.00;102520.66;5085032;28;20751;-78
2023/01/25 10:56:29;;;;;;;13.70;7.70;;;;;;;0.45;100.00;102514.84;5063665;28;20198;-77
2023/01/25 10:59:15;;;;;;;18.27;9.73;;;;;;;0.44;100.00;102513.09;5087210;28;20222;-78
2023/01/25 11:01:42;;;;;;;19.90;9.77;;;;;;;0.43;100.00;102507.09;5081749;28;20685;-77
2023/01/25 11:04:25;;;;;;;13.63;8.23;;;;;;;0.42;100.00;102499.31;5087277;28;20382;-76
2023/01/25 11:06:52;;;;;;;16.20;8.23;;;;;;;0.47;100.00;102495.25;5077953;28;20212;-78
2023/01/25 11:09:31;;;;;;;16.53;8.87;;;;;;;0.47;100.00;102498.69;5080749;28;20241;-76
2023/01/25 11:11:59;;;;;;;16.07;8.50;;;;;;;0.49;100.00;102484.28;5081831;28;20206;-76
2023/01/25 11:14:29;;;;;;;16.83;8.67;;;;;;;0.49;100.00;102486.84;5085320;28;20182;-77